الصفحة الرئيسية
METAR-TAF:

METAR-TAF

مطار :

Juigalpa, نيكاراغوا

دائرة عرض: 12-06N, خط طول: 085-22W, ارتفاع: 90 متر

مراقبة الطقس الحالي

تاريخ ووقت الإصدار 3ساعات و 59 دقيقة قبل الساعة 23:00UTC
ريح 6 عقدة من الشرق
درجة الحرارة 28°درجة مئوية
الرطوبة 62%
ضغط 1011 hPa
الرؤية 10 كم أو أكثر
غيوم قليلة على ارتفاع 2000 قدم
غيوم متفرقة على ارتفاع 8000 قدم

METAR: MNJU 052300Z 08006KT 9999 FEW020 SCT080 28/20 Q1011

زمن: 20:59 (02:59 UTC)


TAF: مفقودة

أرصاد الطقس والتوقعات من أكثر من 4000 مطار (تقارير الطقس للمطار METAR والتنبؤ بالطقس بالمطارTAF).

المحطات المتاحة هي النقط الصفراء والحمراء على الخريطة.

حرك المؤشر فوق النقطة لمعرفة اسم المحطة.

ثم انقر لمعرفة أرصاد وتوقعات الطقس.

لتغيير الخارطة: اضغط على الأزرار الخضراء مع رمز الصليب الأسود للتكبير. على الزر الأخضر مع شرطة للتصغير، أو على الأسهم الخضراء للخرائط المجاورة.


METAR-TAF: